sensor_id;sensor_type;location;lat;lon;timestamp;temperature;humidity
68450;SHT30;67758;39.572;2.652;2023-03-22T00:00:38;12.93;86.97
68450;SHT30;67758;39.572;2.652;2023-03-22T00:03:06;12.89;87.11
68450;SHT30;67758;39.572;2.652;2023-03-22T00:05:32;12.84;87.15
68450;SHT30;67758;39.572;2.652;2023-03-22T00:07:58;12.86;87.35
68450;SHT30;67758;39.572;2.652;2023-03-22T00:10:30;12.86;87.54
68450;SHT30;67758;39.572;2.652;2023-03-22T00:12:56;12.89;87.54
68450;SHT30;67758;39.572;2.652;2023-03-22T00:15:22;12.89;87.65
68450;SHT30;67758;39.572;2.652;2023-03-22T00:17:48;12.89;87.68
68450;SHT30;67758;39.572;2.652;2023-03-22T00:20:17;12.89;87.71
68450;SHT30;67758;39.572;2.652;2023-03-22T00:22:44;12.86;87.76
68450;SHT30;67758;39.572;2.652;2023-03-22T00:25:10;12.89;87.62
68450;SHT30;67758;39.572;2.652;2023-03-22T00:27:37;12.93;87.61
68450;SHT30;67758;39.572;2.652;2023-03-22T00:30:03;12.94;87.48
68450;SHT30;67758;39.572;2.652;2023-03-22T00:32:34;12.94;87.36
68450;SHT30;67758;39.572;2.652;2023-03-22T00:35:00;12.93;87.38
68450;SHT30;67758;39.572;2.652;2023-03-22T00:37:27;12.94;87.25
68450;SHT30;67758;39.572;2.652;2023-03-22T00:40:02;12.93;87.27
68450;SHT30;67758;39.572;2.652;2023-03-22T00:42:29;12.93;87.36
68450;SHT30;67758;39.572;2.652;2023-03-22T00:44:55;12.90;87.43
68450;SHT30;67758;39.572;2.652;2023-03-22T00:47:21;12.90;87.49
68450;SHT30;67758;39.572;2.652;2023-03-22T00:49:47;12.93;87.45
68450;SHT30;67758;39.572;2.652;2023-03-22T00:52:13;12.91;87.36
68450;SHT30;67758;39.572;2.652;2023-03-22T00:54:39;12.96;87.30
68450;SHT30;67758;39.572;2.652;2023-03-22T00:57:05;12.96;87.22
68450;SHT30;67758;39.572;2.652;2023-03-22T00:59:31;12.99;87.13
68450;SHT30;67758;39.572;2.652;2023-03-22T01:02:06;13.00;87.01
68450;SHT30;67758;39.572;2.652;2023-03-22T01:04:32;12.99;86.86
68450;SHT30;67758;39.572;2.652;2023-03-22T01:07:00;12.99;86.87
68450;SHT30;67758;39.572;2.652;2023-03-22T01:09:29;12.96;86.93
68450;SHT30;67758;39.572;2.652;2023-03-22T01:12:00;12.99;86.78
68450;SHT30;67758;39.572;2.652;2023-03-22T01:14:27;13.00;86.79
68450;SHT30;67758;39.572;2.652;2023-03-22T01:16:53;13.00;86.95
68450;SHT30;67758;39.572;2.652;2023-03-22T01:19:24;13.10;86.67
68450;SHT30;67758;39.572;2.652;2023-03-22T01:21:52;13.08;86.43
68450;SHT30;67758;39.572;2.652;2023-03-22T01:24:18;13.07;86.33
68450;SHT30;67758;39.572;2.652;2023-03-22T01:26:46;13.03;86.27
68450;SHT30;67758;39.572;2.652;2023-03-22T01:29:12;12.99;86.18
68450;SHT30;67758;39.572;2.652;2023-03-22T01:31:38;12.94;86.21
68450;SHT30;67758;39.572;2.652;2023-03-22T01:34:04;12.91;86.64
68450;SHT30;67758;39.572;2.652;2023-03-22T01:36:30;12.90;86.57
68450;SHT30;67758;39.572;2.652;2023-03-22T01:38:58;13.01;86.88
68450;SHT30;67758;39.572;2.652;2023-03-22T01:41:24;12.94;86.65
68450;SHT30;67758;39.572;2.652;2023-03-22T01:44:11;12.86;86.56
68450;SHT30;67758;39.572;2.652;2023-03-22T01:46:39;12.80;86.56
68450;SHT30;67758;39.572;2.652;2023-03-22T01:49:05;12.80;86.87
68450;SHT30;67758;39.572;2.652;2023-03-22T01:51:33;12.79;86.73
68450;SHT30;67758;39.572;2.652;2023-03-22T01:54:11;12.83;86.81
68450;SHT30;67758;39.572;2.652;2023-03-22T01:56:40;12.89;86.74
68450;SHT30;67758;39.572;2.652;2023-03-22T01:59:09;12.84;86.59
68450;SHT30;67758;39.572;2.652;2023-03-22T02:01:36;12.84;86.61
68450;SHT30;67758;39.572;2.652;2023-03-22T02:04:11;12.81;86.83
68450;SHT30;67758;39.572;2.652;2023-03-22T02:06:38;12.84;87.00
68450;SHT30;67758;39.572;2.652;2023-03-22T02:09:05;12.89;87.16
68450;SHT30;67758;39.572;2.652;2023-03-22T02:11:41;12.87;86.74
68450;SHT30;67758;39.572;2.652;2023-03-22T02:20:08;12.62;85.08
68450;SHT30;67758;39.572;2.652;2023-03-22T02:45:11;12.26;86.97
68450;SHT30;67758;39.572;2.652;2023-03-22T02:50:14;12.46;86.65
68450;SHT30;67758;39.572;2.652;2023-03-22T02:52:51;12.64;86.57
68450;SHT30;67758;39.572;2.652;2023-03-22T02:55:38;12.52;85.66
68450;SHT30;67758;39.572;2.652;2023-03-22T02:58:11;12.38;85.99
68450;SHT30;67758;39.572;2.652;2023-03-22T03:00:40;12.49;86.13
68450;SHT30;67758;39.572;2.652;2023-03-22T03:03:10;12.46;86.01
68450;SHT30;67758;39.572;2.652;2023-03-22T03:05:40;12.35;85.79
68450;SHT30;67758;39.572;2.652;2023-03-22T03:08:09;12.30;85.93
68450;SHT30;67758;39.572;2.652;2023-03-22T03:10:37;12.22;86.14
68450;SHT30;67758;39.572;2.652;2023-03-22T03:13:04;12.14;86.33
68450;SHT30;67758;39.572;2.652;2023-03-22T03:15:32;12.05;86.53
68450;SHT30;67758;39.572;2.652;2023-03-22T03:21:05;12.09;86.68
68450;SHT30;67758;39.572;2.652;2023-03-22T03:26:49;12.12;86.50
68450;SHT30;67758;39.572;2.652;2023-03-22T03:29:45;12.01;86.31
68450;SHT30;67758;39.572;2.652;2023-03-22T03:32:21;12.05;86.28
68450;SHT30;67758;39.572;2.652;2023-03-22T03:34:58;12.04;86.26
68450;SHT30;67758;39.572;2.652;2023-03-22T03:37:30;11.99;86.02
68450;SHT30;67758;39.572;2.652;2023-03-22T03:40:26;11.87;86.22
68450;SHT30;67758;39.572;2.652;2023-03-22T03:42:54;11.82;86.91
68450;SHT30;67758;39.572;2.652;2023-03-22T03:45:23;11.84;87.00
68450;SHT30;67758;39.572;2.652;2023-03-22T03:47:52;11.88;87.16
68450;SHT30;67758;39.572;2.652;2023-03-22T03:50:22;11.88;86.85
68450;SHT30;67758;39.572;2.652;2023-03-22T03:52:53;11.95;87.20
68450;SHT30;67758;39.572;2.652;2023-03-22T03:55:19;11.91;86.86
68450;SHT30;67758;39.572;2.652;2023-03-22T03:57:48;11.82;86.99
68450;SHT30;67758;39.572;2.652;2023-03-22T04:00:14;11.85;86.91
68450;SHT30;67758;39.572;2.652;2023-03-22T04:02:43;11.81;86.93
68450;SHT30;67758;39.572;2.652;2023-03-22T04:05:10;11.85;86.89
68450;SHT30;67758;39.572;2.652;2023-03-22T04:07:37;11.95;86.66
68450;SHT30;67758;39.572;2.652;2023-03-22T04:10:04;11.99;86.97
68450;SHT30;67758;39.572;2.652;2023-03-22T04:12:31;11.89;87.32
68450;SHT30;67758;39.572;2.652;2023-03-22T04:14:57;11.92;87.53
68450;SHT30;67758;39.572;2.652;2023-03-22T04:17:23;11.97;87.35
68450;SHT30;67758;39.572;2.652;2023-03-22T04:19:50;11.88;87.12
68450;SHT30;67758;39.572;2.652;2023-03-22T04:22:18;11.79;87.43
68450;SHT30;67758;39.572;2.652;2023-03-22T04:24:44;11.81;87.40
68450;SHT30;67758;39.572;2.652;2023-03-22T04:27:19;11.79;87.46
68450;SHT30;67758;39.572;2.652;2023-03-22T04:29:45;11.91;87.35
68450;SHT30;67758;39.572;2.652;2023-03-22T04:32:14;11.92;87.18
68450;SHT30;67758;39.572;2.652;2023-03-22T04:34:41;11.84;86.99
68450;SHT30;67758;39.572;2.652;2023-03-22T04:37:07;11.85;86.95
68450;SHT30;67758;39.572;2.652;2023-03-22T04:39:33;11.84;86.69
68450;SHT30;67758;39.572;2.652;2023-03-22T04:41:58;11.84;86.63
68450;SHT30;67758;39.572;2.652;2023-03-22T04:44:25;11.77;86.52
68450;SHT30;67758;39.572;2.652;2023-03-22T04:46:50;11.78;86.70
68450;SHT30;67758;39.572;2.652;2023-03-22T04:49:16;11.87;86.63
68450;SHT30;67758;39.572;2.652;2023-03-22T04:51:42;11.88;86.24
68450;SHT30;67758;39.572;2.652;2023-03-22T04:54:08;11.88;85.98
68450;SHT30;67758;39.572;2.652;2023-03-22T04:56:34;11.95;86.03
68450;SHT30;67758;39.572;2.652;2023-03-22T04:59:00;11.91;85.89
68450;SHT30;67758;39.572;2.652;2023-03-22T05:01:26;11.87;85.87
68450;SHT30;67758;39.572;2.652;2023-03-22T05:03:51;11.89;85.77
68450;SHT30;67758;39.572;2.652;2023-03-22T05:06:17;11.87;86.02
68450;SHT30;67758;39.572;2.652;2023-03-22T05:08:45;11.85;86.08
68450;SHT30;67758;39.572;2.652;2023-03-22T05:11:13;11.89;86.22
68450;SHT30;67758;39.572;2.652;2023-03-22T05:13:40;11.79;86.79
68450;SHT30;67758;39.572;2.652;2023-03-22T05:16:08;11.78;86.89
68450;SHT30;67758;39.572;2.652;2023-03-22T05:18:34;11.73;87.05
68450;SHT30;67758;39.572;2.652;2023-03-22T05:21:02;11.78;87.13
68450;SHT30;67758;39.572;2.652;2023-03-22T05:23:28;11.66;87.08
68450;SHT30;67758;39.572;2.652;2023-03-22T05:25:54;11.51;87.54
68450;SHT30;67758;39.572;2.652;2023-03-22T05:28:22;11.44;87.74
68450;SHT30;67758;39.572;2.652;2023-03-22T05:30:54;11.34;88.00
68450;SHT30;67758;39.572;2.652;2023-03-22T05:33:19;11.27;88.21
68450;SHT30;67758;39.572;2.652;2023-03-22T05:35:56;11.26;88.20
68450;SHT30;67758;39.572;2.652;2023-03-22T05:38:22;11.30;88.24
68450;SHT30;67758;39.572;2.652;2023-03-22T05:40:49;11.33;88.27
68450;SHT30;67758;39.572;2.652;2023-03-22T05:43:14;11.27;88.17
68450;SHT30;67758;39.572;2.652;2023-03-22T05:45:40;11.26;88.34
68450;SHT30;67758;39.572;2.652;2023-03-22T05:48:06;11.28;88.36
68450;SHT30;67758;39.572;2.652;2023-03-22T05:50:32;11.26;88.39
68450;SHT30;67758;39.572;2.652;2023-03-22T05:52:58;11.28;88.49
68450;SHT30;67758;39.572;2.652;2023-03-22T05:55:24;11.31;88.61
68450;SHT30;67758;39.572;2.652;2023-03-22T05:57:50;11.34;88.57
68450;SHT30;67758;39.572;2.652;2023-03-22T06:00:19;11.37;88.42
68450;SHT30;67758;39.572;2.652;2023-03-22T06:02:47;11.46;88.42
68450;SHT30;67758;39.572;2.652;2023-03-22T06:05:14;11.43;88.49
68450;SHT30;67758;39.572;2.652;2023-03-22T06:07:41;11.46;88.41
68450;SHT30;67758;39.572;2.652;2023-03-22T06:10:09;11.46;88.39
68450;SHT30;67758;39.572;2.652;2023-03-22T06:12:35;11.50;88.51
68450;SHT30;67758;39.572;2.652;2023-03-22T06:15:02;11.58;88.21
68450;SHT30;67758;39.572;2.652;2023-03-22T06:17:29;11.57;87.95
68450;SHT30;67758;39.572;2.652;2023-03-22T06:19:55;11.67;87.86
68450;SHT30;67758;39.572;2.652;2023-03-22T06:22:21;11.58;87.93
68450;SHT30;67758;39.572;2.652;2023-03-22T06:24:47;11.67;87.73
68450;SHT30;67758;39.572;2.652;2023-03-22T06:27:13;11.82;87.89
68450;SHT30;67758;39.572;2.652;2023-03-22T06:29:39;11.78;87.43
68450;SHT30;67758;39.572;2.652;2023-03-22T06:32:05;11.77;87.57
68450;SHT30;67758;39.572;2.652;2023-03-22T06:34:34;11.87;87.69
68450;SHT30;67758;39.572;2.652;2023-03-22T06:36:59;11.81;87.28
68450;SHT30;67758;39.572;2.652;2023-03-22T06:39:28;11.84;87.09
68450;SHT30;67758;39.572;2.652;2023-03-22T06:41:53;11.84;87.22
68450;SHT30;67758;39.572;2.652;2023-03-22T06:44:19;11.87;87.52
68450;SHT30;67758;39.572;2.652;2023-03-22T06:46:46;11.92;87.44
68450;SHT30;67758;39.572;2.652;2023-03-22T06:49:12;12.18;87.74
68450;SHT30;67758;39.572;2.652;2023-03-22T06:51:38;12.17;86.90
68450;SHT30;67758;39.572;2.652;2023-03-22T06:54:04;12.26;86.69
68450;SHT30;67758;39.572;2.652;2023-03-22T06:56:30;12.25;86.48
68450;SHT30;67758;39.572;2.652;2023-03-22T06:59:01;12.29;86.46
68450;SHT30;67758;39.572;2.652;2023-03-22T07:01:30;12.48;86.36
68450;SHT30;67758;39.572;2.652;2023-03-22T07:03:58;12.30;85.73
68450;SHT30;67758;39.572;2.652;2023-03-22T07:06:24;12.43;85.80
68450;SHT30;67758;39.572;2.652;2023-03-22T07:08:50;12.52;86.22
68450;SHT30;67758;39.572;2.652;2023-03-22T07:11:16;12.59;85.75
68450;SHT30;67758;39.572;2.652;2023-03-22T07:13:41;12.55;85.18
68450;SHT30;67758;39.572;2.652;2023-03-22T07:16:16;12.48;84.39
68450;SHT30;67758;39.572;2.652;2023-03-22T07:18:42;12.46;84.19
68450;SHT30;67758;39.572;2.652;2023-03-22T07:21:07;12.55;83.89
68450;SHT30;67758;39.572;2.652;2023-03-22T07:23:33;12.62;83.61
68450;SHT30;67758;39.572;2.652;2023-03-22T07:25:59;12.83;83.58
68450;SHT30;67758;39.572;2.652;2023-03-22T07:28:25;13.04;83.20
68450;SHT30;67758;39.572;2.652;2023-03-22T07:31:02;13.25;82.54
68450;SHT30;67758;39.572;2.652;2023-03-22T07:33:35;13.52;81.88
68450;SHT30;67758;39.572;2.652;2023-03-22T07:36:01;13.71;81.29
68450;SHT30;67758;39.572;2.652;2023-03-22T07:38:27;13.96;80.78
68450;SHT30;67758;39.572;2.652;2023-03-22T07:40:55;14.20;80.27
68450;SHT30;67758;39.572;2.652;2023-03-22T07:43:21;14.37;79.28
68450;SHT30;67758;39.572;2.652;2023-03-22T07:45:51;14.34;78.90
68450;SHT30;67758;39.572;2.652;2023-03-22T07:48:17;14.40;79.31
68450;SHT30;67758;39.572;2.652;2023-03-22T07:50:43;14.47;78.89
68450;SHT30;67758;39.572;2.652;2023-03-22T07:53:17;14.54;79.26
68450;SHT30;67758;39.572;2.652;2023-03-22T07:55:43;14.51;79.47
68450;SHT30;67758;39.572;2.652;2023-03-22T07:58:09;14.50;80.19
68450;SHT30;67758;39.572;2.652;2023-03-22T08:00:35;14.56;80.12
68450;SHT30;67758;39.572;2.652;2023-03-22T08:03:01;14.63;79.98
68450;SHT30;67758;39.572;2.652;2023-03-22T08:05:27;14.80;79.63
68450;SHT30;67758;39.572;2.652;2023-03-22T08:08:00;14.81;79.96
68450;SHT30;67758;39.572;2.652;2023-03-22T08:10:26;14.84;80.11
68450;SHT30;67758;39.572;2.652;2023-03-22T08:12:52;14.81;80.21
68450;SHT30;67758;39.572;2.652;2023-03-22T08:15:23;14.83;81.27
68450;SHT30;67758;39.572;2.652;2023-03-22T08:17:51;14.85;81.61
68450;SHT30;67758;39.572;2.652;2023-03-22T08:20:17;14.88;82.14
68450;SHT30;67758;39.572;2.652;2023-03-22T08:22:44;14.94;82.41
68450;SHT30;67758;39.572;2.652;2023-03-22T08:25:10;14.95;82.73
68450;SHT30;67758;39.572;2.652;2023-03-22T08:27:36;14.92;82.77
68450;SHT30;67758;39.572;2.652;2023-03-22T08:30:09;14.78;83.70
68450;SHT30;67758;39.572;2.652;2023-03-22T08:32:48;14.80;83.87
68450;SHT30;67758;39.572;2.652;2023-03-22T08:35:13;14.81;83.70
68450;SHT30;67758;39.572;2.652;2023-03-22T08:37:40;14.76;84.36
68450;SHT30;67758;39.572;2.652;2023-03-22T08:40:07;14.85;84.49
68450;SHT30;67758;39.572;2.652;2023-03-22T08:42:34;14.99;84.20
68450;SHT30;67758;39.572;2.652;2023-03-22T08:45:06;15.01;83.95
68450;SHT30;67758;39.572;2.652;2023-03-22T08:47:34;14.99;83.88
68450;SHT30;67758;39.572;2.652;2023-03-22T08:53:13;15.12;83.58
68450;SHT30;67758;39.572;2.652;2023-03-22T08:55:49;15.17;83.56
68450;SHT30;67758;39.572;2.652;2023-03-22T08:58:15;15.12;83.80
68450;SHT30;67758;39.572;2.652;2023-03-22T09:00:42;15.15;83.92
68450;SHT30;67758;39.572;2.652;2023-03-22T09:03:08;15.19;83.78
68450;SHT30;67758;39.572;2.652;2023-03-22T09:05:34;15.24;83.54
68450;SHT30;67758;39.572;2.652;2023-03-22T09:08:00;15.29;83.34
68450;SHT30;67758;39.572;2.652;2023-03-22T09:10:27;15.35;83.37
68450;SHT30;67758;39.572;2.652;2023-03-22T09:12:54;15.24;83.56
68450;SHT30;67758;39.572;2.652;2023-03-22T09:15:20;15.29;83.73
68450;SHT30;67758;39.572;2.652;2023-03-22T09:17:46;15.40;83.58
68450;SHT30;67758;39.572;2.652;2023-03-22T09:20:11;15.38;83.57
68450;SHT30;67758;39.572;2.652;2023-03-22T09:22:37;15.43;83.40
68450;SHT30;67758;39.572;2.652;2023-03-22T09:25:03;15.46;83.19
68450;SHT30;67758;39.572;2.652;2023-03-22T09:27:29;15.60;83.06
68450;SHT30;67758;39.572;2.652;2023-03-22T09:29:55;15.62;83.16
68450;SHT30;67758;39.572;2.652;2023-03-22T09:32:21;15.70;82.75
68450;SHT30;67758;39.572;2.652;2023-03-22T09:34:47;15.70;82.46
68450;SHT30;67758;39.572;2.652;2023-03-22T09:37:13;15.70;82.36
68450;SHT30;67758;39.572;2.652;2023-03-22T09:39:40;15.80;82.05
68450;SHT30;67758;39.572;2.652;2023-03-22T09:42:41;15.82;82.14
68450;SHT30;67758;39.572;2.652;2023-03-22T09:45:21;15.85;81.82
68450;SHT30;67758;39.572;2.652;2023-03-22T09:47:53;15.93;81.67
68450;SHT30;67758;39.572;2.652;2023-03-22T09:50:21;15.94;81.51
68450;SHT30;67758;39.572;2.652;2023-03-22T09:52:59;16.16;80.94
68450;SHT30;67758;39.572;2.652;2023-03-22T09:55:38;16.37;80.12
68450;SHT30;67758;39.572;2.652;2023-03-22T09:58:18;16.37;79.54
68450;SHT30;67758;39.572;2.652;2023-03-22T10:01:02;16.38;79.91
68450;SHT30;67758;39.572;2.652;2023-03-22T10:03:58;16.61;79.01
68450;SHT30;67758;39.572;2.652;2023-03-22T10:06:26;16.76;78.92
68450;SHT30;67758;39.572;2.652;2023-03-22T10:09:15;16.73;78.53
68450;SHT30;67758;39.572;2.652;2023-03-22T10:17:38;17.09;77.83
68450;SHT30;67758;39.572;2.652;2023-03-22T10:22:58;17.27;77.56
68450;SHT30;67758;39.572;2.652;2023-03-22T10:25:32;17.30;77.37
68450;SHT30;67758;39.572;2.652;2023-03-22T10:27:59;17.54;76.99
68450;SHT30;67758;39.572;2.652;2023-03-22T10:30:29;17.39;76.79
68450;SHT30;67758;39.572;2.652;2023-03-22T10:35:28;17.67;76.01
68450;SHT30;67758;39.572;2.652;2023-03-22T10:37:57;18.08;74.24
68450;SHT30;67758;39.572;2.652;2023-03-22T10:40:29;19.79;69.18
68450;SHT30;67758;39.572;2.652;2023-03-22T10:43:01;20.71;66.18
68450;SHT30;67758;39.572;2.652;2023-03-22T10:45:30;21.59;63.43
68450;SHT30;67758;39.572;2.652;2023-03-22T10:48:34;21.56;62.85
68450;SHT30;67758;39.572;2.652;2023-03-22T10:50:52;22.27;61.34
68450;SHT30;67758;39.572;2.652;2023-03-22T10:53:42;22.29;61.31
68450;SHT30;67758;39.572;2.652;2023-03-22T10:56:15;22.13;61.36
68450;SHT30;67758;39.572;2.652;2023-03-22T10:58:43;22.10;62.01
68450;SHT30;67758;39.572;2.652;2023-03-22T11:01:11;22.57;60.72
68450;SHT30;67758;39.572;2.652;2023-03-22T11:08:55;22.88;58.91
68450;SHT30;67758;39.572;2.652;2023-03-22T11:11:25;22.81;58.82
68450;SHT30;67758;39.572;2.652;2023-03-22T11:14:06;22.99;57.74
68450;SHT30;67758;39.572;2.652;2023-03-22T11:19:32;21.82;60.83
68450;SHT30;67758;39.572;2.652;2023-03-22T11:21:59;21.95;60.65
68450;SHT30;67758;39.572;2.652;2023-03-22T11:24:27;22.47;59.49
68450;SHT30;67758;39.572;2.652;2023-03-22T11:27:24;22.92;57.59
68450;SHT30;67758;39.572;2.652;2023-03-22T11:29:53;23.16;57.50
68450;SHT30;67758;39.572;2.652;2023-03-22T11:32:30;23.20;57.88
68450;SHT30;67758;39.572;2.652;2023-03-22T11:37:47;23.33;56.88
68450;SHT30;67758;39.572;2.652;2023-03-22T11:40:18;23.43;57.55
68450;SHT30;67758;39.572;2.652;2023-03-22T11:43:02;23.45;56.06
68450;SHT30;67758;39.572;2.652;2023-03-22T11:45:36;23.38;56.51
68450;SHT30;67758;39.572;2.652;2023-03-22T11:48:14;23.33;56.95
68450;SHT30;67758;39.572;2.652;2023-03-22T11:50:42;23.28;57.00
68450;SHT30;67758;39.572;2.652;2023-03-22T11:53:15;23.30;57.33
68450;SHT30;67758;39.572;2.652;2023-03-22T11:55:43;23.01;58.47
68450;SHT30;67758;39.572;2.652;2023-03-22T12:01:06;23.76;56.04
68450;SHT30;67758;39.572;2.652;2023-03-22T12:03:38;23.53;56.63
68450;SHT30;67758;39.572;2.652;2023-03-22T12:06:15;23.49;56.62
68450;SHT30;67758;39.572;2.652;2023-03-22T12:08:55;23.38;56.78
68450;SHT30;67758;39.572;2.652;2023-03-22T12:11:44;23.32;57.47
68450;SHT30;67758;39.572;2.652;2023-03-22T12:17:04;23.45;57.37
68450;SHT30;67758;39.572;2.652;2023-03-22T12:20:44;23.16;57.75
68450;SHT30;67758;39.572;2.652;2023-03-22T12:22:49;22.85;57.57
68450;SHT30;67758;39.572;2.652;2023-03-22T12:25:24;22.91;57.92
68450;SHT30;67758;39.572;2.652;2023-03-22T12:27:57;22.87;58.79
68450;SHT30;67758;39.572;2.652;2023-03-22T12:30:30;22.92;59.17
68450;SHT30;67758;39.572;2.652;2023-03-22T12:33:17;22.83;58.48
68450;SHT30;67758;39.572;2.652;2023-03-22T12:35:45;22.37;59.13
68450;SHT30;67758;39.572;2.652;2023-03-22T12:38:27;22.32;59.91
68450;SHT30;67758;39.572;2.652;2023-03-22T12:41:13;22.61;59.55
68450;SHT30;67758;39.572;2.652;2023-03-22T12:46:39;22.16;60.73
68450;SHT30;67758;39.572;2.652;2023-03-22T12:49:35;21.97;60.45
68450;SHT30;67758;39.572;2.652;2023-03-22T12:54:58;21.34;62.97
68450;SHT30;67758;39.572;2.652;2023-03-22T12:57:25;21.39;63.09
68450;SHT30;67758;39.572;2.652;2023-03-22T12:59:53;21.20;63.68
68450;SHT30;67758;39.572;2.652;2023-03-22T13:02:31;21.49;62.82
68450;SHT30;67758;39.572;2.652;2023-03-22T13:05:02;21.28;63.24
68450;SHT30;67758;39.572;2.652;2023-03-22T13:07:52;21.08;63.70
68450;SHT30;67758;39.572;2.652;2023-03-22T13:15:59;21.51;63.37
68450;SHT30;67758;39.572;2.652;2023-03-22T13:21:37;21.18;64.06
68450;SHT30;67758;39.572;2.652;2023-03-22T13:26:31;20.95;65.04
68450;SHT30;67758;39.572;2.652;2023-03-22T13:29:09;20.64;65.81
68450;SHT30;67758;39.572;2.652;2023-03-22T13:32:12;20.40;66.69
68450;SHT30;67758;39.572;2.652;2023-03-22T13:34:52;20.73;65.75
68450;SHT30;67758;39.572;2.652;2023-03-22T13:37:32;20.79;66.07
68450;SHT30;67758;39.572;2.652;2023-03-22T13:40:01;20.63;66.19
68450;SHT30;67758;39.572;2.652;2023-03-22T13:42:51;20.67;66.50
68450;SHT30;67758;39.572;2.652;2023-03-22T13:45:31;20.85;65.26
68450;SHT30;67758;39.572;2.652;2023-03-22T13:48:05;20.44;66.41
68450;SHT30;67758;39.572;2.652;2023-03-22T13:50:34;20.34;66.99
68450;SHT30;67758;39.572;2.652;2023-03-22T13:53:15;20.43;66.86
68450;SHT30;67758;39.572;2.652;2023-03-22T13:58:55;20.88;66.18
68450;SHT30;67758;39.572;2.652;2023-03-22T14:01:29;20.66;66.47
68450;SHT30;67758;39.572;2.652;2023-03-22T14:04:03;20.63;66.64
68450;SHT30;67758;39.572;2.652;2023-03-22T14:06:34;20.25;67.16
68450;SHT30;67758;39.572;2.652;2023-03-22T14:09:12;20.34;66.67
68450;SHT30;67758;39.572;2.652;2023-03-22T14:11:49;20.39;67.09
68450;SHT30;67758;39.572;2.652;2023-03-22T14:14:24;20.20;68.00
68450;SHT30;67758;39.572;2.652;2023-03-22T14:17:08;19.96;68.66
68450;SHT30;67758;39.572;2.652;2023-03-22T14:19:37;20.20;67.98
68450;SHT30;67758;39.572;2.652;2023-03-22T14:22:12;20.34;67.46
68450;SHT30;67758;39.572;2.652;2023-03-22T14:24:38;20.26;67.24
68450;SHT30;67758;39.572;2.652;2023-03-22T14:27:05;20.26;66.76
68450;SHT30;67758;39.572;2.652;2023-03-22T14:29:43;20.43;65.47
68450;SHT30;67758;39.572;2.652;2023-03-22T14:32:26;20.46;65.50
68450;SHT30;67758;39.572;2.652;2023-03-22T14:35:26;20.29;65.07
68450;SHT30;67758;39.572;2.652;2023-03-22T14:38:02;20.60;65.37
68450;SHT30;67758;39.572;2.652;2023-03-22T14:40:31;20.43;66.06
68450;SHT30;67758;39.572;2.652;2023-03-22T14:43:12;20.33;66.77
68450;SHT30;67758;39.572;2.652;2023-03-22T14:45:37;20.19;67.57
68450;SHT30;67758;39.572;2.652;2023-03-22T14:48:22;20.37;65.45
68450;SHT30;67758;39.572;2.652;2023-03-22T14:51:00;20.42;64.73
68450;SHT30;67758;39.572;2.652;2023-03-22T14:53:34;20.40;65.07
68450;SHT30;67758;39.572;2.652;2023-03-22T14:56:06;20.42;65.15
68450;SHT30;67758;39.572;2.652;2023-03-22T14:58:34;20.13;66.03
68450;SHT30;67758;39.572;2.652;2023-03-22T15:01:03;20.00;67.11
68450;SHT30;67758;39.572;2.652;2023-03-22T15:03:30;20.00;67.12
68450;SHT30;67758;39.572;2.652;2023-03-22T15:05:59;20.39;66.93
68450;SHT30;67758;39.572;2.652;2023-03-22T15:08:27;20.09;67.12
68450;SHT30;67758;39.572;2.652;2023-03-22T15:11:01;20.10;66.43
68450;SHT30;67758;39.572;2.652;2023-03-22T15:13:31;20.30;66.39
68450;SHT30;67758;39.572;2.652;2023-03-22T15:16:00;20.37;66.93
68450;SHT30;67758;39.572;2.652;2023-03-22T15:18:29;20.37;67.46
68450;SHT30;67758;39.572;2.652;2023-03-22T15:20:55;20.36;67.28
68450;SHT30;67758;39.572;2.652;2023-03-22T15:23:38;20.57;66.85
68450;SHT30;67758;39.572;2.652;2023-03-22T15:26:14;20.18;67.35
68450;SHT30;67758;39.572;2.652;2023-03-22T15:28:45;19.93;68.15
68450;SHT30;67758;39.572;2.652;2023-03-22T15:31:42;19.96;68.64
68450;SHT30;67758;39.572;2.652;2023-03-22T15:34:27;20.09;68.27
68450;SHT30;67758;39.572;2.652;2023-03-22T15:36:59;19.99;68.65
68450;SHT30;67758;39.572;2.652;2023-03-22T15:39:36;19.93;69.17
68450;SHT30;67758;39.572;2.652;2023-03-22T15:42:31;19.82;69.47
68450;SHT30;67758;39.572;2.652;2023-03-22T15:45:18;19.69;69.60
68450;SHT30;67758;39.572;2.652;2023-03-22T15:50:16;19.82;69.43
68450;SHT30;67758;39.572;2.652;2023-03-22T15:53:01;20.04;69.19
68450;SHT30;67758;39.572;2.652;2023-03-22T15:55:34;19.99;69.39
68450;SHT30;67758;39.572;2.652;2023-03-22T15:58:03;19.75;70.35
68450;SHT30;67758;39.572;2.652;2023-03-22T16:00:37;19.68;70.26
68450;SHT30;67758;39.572;2.652;2023-03-22T16:05:37;19.69;69.62
68450;SHT30;67758;39.572;2.652;2023-03-22T16:08:06;19.85;69.32
68450;SHT30;67758;39.572;2.652;2023-03-22T16:10:34;19.78;69.85
68450;SHT30;67758;39.572;2.652;2023-03-22T16:13:00;19.58;70.50
68450;SHT30;67758;39.572;2.652;2023-03-22T16:15:32;19.61;70.13
68450;SHT30;67758;39.572;2.652;2023-03-22T16:17:58;19.78;69.73
68450;SHT30;67758;39.572;2.652;2023-03-22T16:20:25;19.78;70.02
68450;SHT30;67758;39.572;2.652;2023-03-22T16:23:00;19.96;69.77
68450;SHT30;67758;39.572;2.652;2023-03-22T16:25:29;19.83;69.63
68450;SHT30;67758;39.572;2.652;2023-03-22T16:27:57;19.64;70.09
68450;SHT30;67758;39.572;2.652;2023-03-22T16:30:23;19.58;70.19
68450;SHT30;67758;39.572;2.652;2023-03-22T16:32:48;19.61;70.13
68450;SHT30;67758;39.572;2.652;2023-03-22T16:35:17;19.85;70.27
68450;SHT30;67758;39.572;2.652;2023-03-22T16:37:43;19.82;69.30
68450;SHT30;67758;39.572;2.652;2023-03-22T16:40:17;19.86;69.62
68450;SHT30;67758;39.572;2.652;2023-03-22T16:42:43;19.74;69.74
68450;SHT30;67758;39.572;2.652;2023-03-22T16:45:29;19.74;69.76
68450;SHT30;67758;39.572;2.652;2023-03-22T16:47:55;19.61;70.08
68450;SHT30;67758;39.572;2.652;2023-03-22T16:50:26;19.67;70.10
68450;SHT30;67758;39.572;2.652;2023-03-22T16:52:53;19.85;69.67
68450;SHT30;67758;39.572;2.652;2023-03-22T16:55:21;19.92;69.53
68450;SHT30;67758;39.572;2.652;2023-03-22T16:57:48;19.81;69.30
68450;SHT30;67758;39.572;2.652;2023-03-22T17:00:17;19.99;68.98
68450;SHT30;67758;39.572;2.652;2023-03-22T17:02:46;20.08;68.32
68450;SHT30;67758;39.572;2.652;2023-03-22T17:05:14;20.16;68.08
68450;SHT30;67758;39.572;2.652;2023-03-22T17:07:41;20.08;68.46
68450;SHT30;67758;39.572;2.652;2023-03-22T17:10:09;20.23;67.92
68450;SHT30;67758;39.572;2.652;2023-03-22T17:12:35;19.99;68.69
68450;SHT30;67758;39.572;2.652;2023-03-22T17:15:02;19.78;69.68
68450;SHT30;67758;39.572;2.652;2023-03-22T17:17:28;19.69;69.96
68450;SHT30;67758;39.572;2.652;2023-03-22T17:19:55;19.58;70.22
68450;SHT30;67758;39.572;2.652;2023-03-22T17:22:26;19.27;70.92
68450;SHT30;67758;39.572;2.652;2023-03-22T17:24:52;18.77;72.21